Weather at Ballone Castle Airstrip

Public forecast

Using degrees Celsius for public forecast. Weather courtesy of forecast.io.

Closest aviation weather report (METAR) to Ballone Castle Airstrip

Closest report is RAF Kinloss, 13.5 nm (25.1 km) SE. Retrieved 2021/07/31 05:50 UTC (46 minutes ago):

EGQK 310550Z AUTO 33011KT 9999 OVC021/// 12/08 Q1006

Closest aviation forecast (TAF) to Ballone Castle Airstrip

Forecast is more than 12 hours old.

Closest forecast is RAF Kinloss, 13.5 nm (25.1 km) SE. Retrieved 2020/10/16 06:00 UTC (10 months ago):

TAF TAF EGQK 160658Z 1606/1624 CNL